sensor_id;sensor_type;location;lat;lon;timestamp;P1;durP1;ratioP1;P2;durP2;ratioP2
63320;SDS011;49449;48.800;9.534;2023-05-07T00:01:05;2.83;;;2.40;;
63320;SDS011;49449;48.800;9.534;2023-05-07T00:03:35;2.88;;;2.40;;
63320;SDS011;49449;48.800;9.534;2023-05-07T00:06:04;2.72;;;2.30;;
63320;SDS011;49449;48.800;9.534;2023-05-07T00:08:32;4.15;;;2.35;;
63320;SDS011;49449;48.800;9.534;2023-05-07T00:11:00;3.35;;;2.10;;
63320;SDS011;49449;48.800;9.534;2023-05-07T00:13:28;2.33;;;1.98;;
63320;SDS011;49449;48.800;9.534;2023-05-07T00:15:57;3.83;;;2.20;;
63320;SDS011;49449;48.800;9.534;2023-05-07T00:18:25;2.92;;;2.33;;
63320;SDS011;49449;48.800;9.534;2023-05-07T00:20:54;2.38;;;2.10;;
63320;SDS011;49449;48.800;9.534;2023-05-07T00:23:22;2.75;;;2.30;;
63320;SDS011;49449;48.800;9.534;2023-05-07T00:25:50;3.05;;;2.47;;
63320;SDS011;49449;48.800;9.534;2023-05-07T00:28:18;2.60;;;2.38;;
63320;SDS011;49449;48.800;9.534;2023-05-07T00:30:47;5.07;;;2.47;;
63320;SDS011;49449;48.800;9.534;2023-05-07T00:33:15;3.50;;;2.25;;
63320;SDS011;49449;48.800;9.534;2023-05-07T00:35:43;3.00;;;2.60;;
63320;SDS011;49449;48.800;9.534;2023-05-07T00:38:12;4.82;;;3.13;;
63320;SDS011;49449;48.800;9.534;2023-05-07T00:40:40;2.78;;;2.58;;
63320;SDS011;49449;48.800;9.534;2023-05-07T00:43:08;2.60;;;2.40;;
63320;SDS011;49449;48.800;9.534;2023-05-07T00:45:36;2.92;;;2.47;;
63320;SDS011;49449;48.800;9.534;2023-05-07T00:48:04;3.58;;;2.78;;
63320;SDS011;49449;48.800;9.534;2023-05-07T00:50:32;3.38;;;2.58;;
63320;SDS011;49449;48.800;9.534;2023-05-07T00:53:00;3.15;;;2.65;;
63320;SDS011;49449;48.800;9.534;2023-05-07T00:55:30;2.33;;;2.13;;
63320;SDS011;49449;48.800;9.534;2023-05-07T00:57:58;3.17;;;2.50;;
63320;SDS011;49449;48.800;9.534;2023-05-07T01:00:26;3.63;;;2.60;;
63320;SDS011;49449;48.800;9.534;2023-05-07T01:02:55;3.25;;;2.83;;
63320;SDS011;49449;48.800;9.534;2023-05-07T01:05:23;2.97;;;2.47;;
63320;SDS011;49449;48.800;9.534;2023-05-07T01:07:53;4.53;;;2.70;;
63320;SDS011;49449;48.800;9.534;2023-05-07T01:10:22;3.55;;;2.70;;
63320;SDS011;49449;48.800;9.534;2023-05-07T01:12:52;3.08;;;2.78;;
63320;SDS011;49449;48.800;9.534;2023-05-07T01:15:21;4.65;;;2.72;;
63320;SDS011;49449;48.800;9.534;2023-05-07T01:17:49;4.30;;;2.60;;
63320;SDS011;49449;48.800;9.534;2023-05-07T01:20:17;3.58;;;2.92;;
63320;SDS011;49449;48.800;9.534;2023-05-07T01:22:47;3.72;;;2.75;;
63320;SDS011;49449;48.800;9.534;2023-05-07T01:25:16;2.95;;;2.75;;
63320;SDS011;49449;48.800;9.534;2023-05-07T01:27:45;3.42;;;2.80;;
63320;SDS011;49449;48.800;9.534;2023-05-07T01:30:13;2.90;;;2.70;;
63320;SDS011;49449;48.800;9.534;2023-05-07T01:32:45;3.10;;;2.80;;
63320;SDS011;49449;48.800;9.534;2023-05-07T01:35:18;4.40;;;2.72;;
63320;SDS011;49449;48.800;9.534;2023-05-07T01:37:51;4.43;;;2.80;;
63320;SDS011;49449;48.800;9.534;2023-05-07T01:40:20;4.38;;;2.97;;
63320;SDS011;49449;48.800;9.534;2023-05-07T01:42:48;2.60;;;2.40;;
63320;SDS011;49449;48.800;9.534;2023-05-07T01:45:16;4.97;;;2.60;;
63320;SDS011;49449;48.800;9.534;2023-05-07T01:47:44;2.63;;;2.28;;
63320;SDS011;49449;48.800;9.534;2023-05-07T01:50:12;2.60;;;2.40;;
63320;SDS011;49449;48.800;9.534;2023-05-07T01:52:43;2.55;;;2.35;;
63320;SDS011;49449;48.800;9.534;2023-05-07T01:55:13;3.50;;;2.33;;
63320;SDS011;49449;48.800;9.534;2023-05-07T01:57:41;2.60;;;2.40;;
63320;SDS011;49449;48.800;9.534;2023-05-07T02:00:11;3.00;;;2.20;;
63320;SDS011;49449;48.800;9.534;2023-05-07T02:02:39;2.75;;;2.20;;
63320;SDS011;49449;48.800;9.534;2023-05-07T02:05:07;2.70;;;2.50;;
63320;SDS011;49449;48.800;9.534;2023-05-07T02:07:35;2.35;;;2.22;;
63320;SDS011;49449;48.800;9.534;2023-05-07T02:10:03;3.03;;;2.28;;
63320;SDS011;49449;48.800;9.534;2023-05-07T02:12:33;2.67;;;2.47;;
63320;SDS011;49449;48.800;9.534;2023-05-07T02:15:01;2.70;;;2.50;;
63320;SDS011;49449;48.800;9.534;2023-05-07T02:17:32;2.28;;;2.05;;
63320;SDS011;49449;48.800;9.534;2023-05-07T02:20:00;2.22;;;2.13;;
63320;SDS011;49449;48.800;9.534;2023-05-07T02:22:28;3.45;;;2.25;;
63320;SDS011;49449;48.800;9.534;2023-05-07T02:24:57;2.47;;;2.00;;
63320;SDS011;49449;48.800;9.534;2023-05-07T02:27:26;2.30;;;2.10;;
63320;SDS011;49449;48.800;9.534;2023-05-07T02:29:55;2.63;;;2.38;;
63320;SDS011;49449;48.800;9.534;2023-05-07T02:32:23;3.03;;;1.98;;
63320;SDS011;49449;48.800;9.534;2023-05-07T02:34:51;2.75;;;2.20;;
63320;SDS011;49449;48.800;9.534;2023-05-07T02:37:19;2.25;;;2.15;;
63320;SDS011;49449;48.800;9.534;2023-05-07T02:39:48;2.30;;;2.10;;
63320;SDS011;49449;48.800;9.534;2023-05-07T02:42:16;4.00;;;2.50;;
63320;SDS011;49449;48.800;9.534;2023-05-07T02:44:44;3.15;;;2.20;;
63320;SDS011;49449;48.800;9.534;2023-05-07T02:47:14;3.22;;;2.10;;
63320;SDS011;49449;48.800;9.534;2023-05-07T02:49:42;2.55;;;2.15;;
63320;SDS011;49449;48.800;9.534;2023-05-07T02:52:10;2.60;;;2.40;;
63320;SDS011;49449;48.800;9.534;2023-05-07T02:54:38;2.85;;;2.40;;
63320;SDS011;49449;48.800;9.534;2023-05-07T02:57:06;2.67;;;2.35;;
63320;SDS011;49449;48.800;9.534;2023-05-07T02:59:34;3.05;;;2.38;;
63320;SDS011;49449;48.800;9.534;2023-05-07T03:02:02;2.58;;;2.35;;
63320;SDS011;49449;48.800;9.534;2023-05-07T03:04:32;2.83;;;2.25;;
63320;SDS011;49449;48.800;9.534;2023-05-07T03:06:59;2.35;;;2.15;;
63320;SDS011;49449;48.800;9.534;2023-05-07T03:09:27;2.78;;;2.50;;
63320;SDS011;49449;48.800;9.534;2023-05-07T03:11:57;2.40;;;2.20;;
63320;SDS011;49449;48.800;9.534;2023-05-07T03:14:24;4.75;;;2.58;;
63320;SDS011;49449;48.800;9.534;2023-05-07T03:16:52;2.47;;;2.20;;
63320;SDS011;49449;48.800;9.534;2023-05-07T03:19:20;2.65;;;2.00;;
63320;SDS011;49449;48.800;9.534;2023-05-07T03:21:49;2.10;;;2.00;;
63320;SDS011;49449;48.800;9.534;2023-05-07T03:24:18;2.47;;;1.92;;
63320;SDS011;49449;48.800;9.534;2023-05-07T03:26:46;2.45;;;2.20;;
63320;SDS011;49449;48.800;9.534;2023-05-07T03:29:14;2.17;;;1.98;;
63320;SDS011;49449;48.800;9.534;2023-05-07T03:31:42;2.50;;;2.30;;
63320;SDS011;49449;48.800;9.534;2023-05-07T03:34:11;2.35;;;2.13;;
63320;SDS011;49449;48.800;9.534;2023-05-07T03:36:39;5.88;;;2.53;;
63320;SDS011;49449;48.800;9.534;2023-05-07T03:39:08;2.80;;;2.55;;
63320;SDS011;49449;48.800;9.534;2023-05-07T03:41:36;2.75;;;2.55;;
63320;SDS011;49449;48.800;9.534;2023-05-07T03:44:04;4.07;;;2.88;;
63320;SDS011;49449;48.800;9.534;2023-05-07T03:46:33;4.00;;;2.85;;
63320;SDS011;49449;48.800;9.534;2023-05-07T03:49:01;3.33;;;2.85;;
63320;SDS011;49449;48.800;9.534;2023-05-07T03:51:29;3.25;;;2.85;;
63320;SDS011;49449;48.800;9.534;2023-05-07T03:53:57;3.00;;;2.70;;
63320;SDS011;49449;48.800;9.534;2023-05-07T03:56:26;3.05;;;2.75;;
63320;SDS011;49449;48.800;9.534;2023-05-07T03:58:54;2.78;;;2.53;;
63320;SDS011;49449;48.800;9.534;2023-05-07T04:01:24;3.55;;;2.92;;
63320;SDS011;49449;48.800;9.534;2023-05-07T04:03:52;3.05;;;2.75;;
63320;SDS011;49449;48.800;9.534;2023-05-07T04:06:20;3.25;;;3.00;;
63320;SDS011;49449;48.800;9.534;2023-05-07T04:08:48;4.15;;;3.03;;
63320;SDS011;49449;48.800;9.534;2023-05-07T04:11:16;2.85;;;2.53;;
63320;SDS011;49449;48.800;9.534;2023-05-07T04:13:45;2.75;;;2.55;;
63320;SDS011;49449;48.800;9.534;2023-05-07T04:16:13;2.92;;;2.55;;
63320;SDS011;49449;48.800;9.534;2023-05-07T04:18:41;3.22;;;2.47;;
63320;SDS011;49449;48.800;9.534;2023-05-07T04:21:13;2.78;;;2.55;;
63320;SDS011;49449;48.800;9.534;2023-05-07T04:23:42;5.03;;;2.80;;
63320;SDS011;49449;48.800;9.534;2023-05-07T04:26:09;2.75;;;2.55;;
63320;SDS011;49449;48.800;9.534;2023-05-07T04:28:39;2.88;;;2.63;;
63320;SDS011;49449;48.800;9.534;2023-05-07T04:31:11;2.75;;;2.55;;
63320;SDS011;49449;48.800;9.534;2023-05-07T04:33:39;3.45;;;2.58;;
63320;SDS011;49449;48.800;9.534;2023-05-07T04:36:07;2.88;;;2.67;;
63320;SDS011;49449;48.800;9.534;2023-05-07T04:38:35;2.72;;;2.50;;
63320;SDS011;49449;48.800;9.534;2023-05-07T04:41:04;2.90;;;2.60;;
63320;SDS011;49449;48.800;9.534;2023-05-07T04:43:32;3.55;;;2.25;;
63320;SDS011;49449;48.800;9.534;2023-05-07T04:46:00;2.47;;;2.28;;
63320;SDS011;49449;48.800;9.534;2023-05-07T04:48:29;3.00;;;2.80;;
63320;SDS011;49449;48.800;9.534;2023-05-07T04:50:57;2.67;;;2.33;;
63320;SDS011;49449;48.800;9.534;2023-05-07T04:53:25;2.60;;;2.40;;
63320;SDS011;49449;48.800;9.534;2023-05-07T04:55:56;2.45;;;2.22;;
63320;SDS011;49449;48.800;9.534;2023-05-07T05:00:51;2.60;;;2.40;;
63320;SDS011;49449;48.800;9.534;2023-05-07T05:03:19;3.63;;;2.95;;
63320;SDS011;49449;48.800;9.534;2023-05-07T05:05:50;3.05;;;2.85;;
63320;SDS011;49449;48.800;9.534;2023-05-07T05:08:19;2.65;;;2.40;;
63320;SDS011;49449;48.800;9.534;2023-05-07T05:10:49;4.90;;;3.00;;
63320;SDS011;49449;48.800;9.534;2023-05-07T05:13:17;2.75;;;2.58;;
63320;SDS011;49449;48.800;9.534;2023-05-07T05:15:45;3.10;;;2.55;;
63320;SDS011;49449;48.800;9.534;2023-05-07T05:18:13;3.00;;;2.70;;
63320;SDS011;49449;48.800;9.534;2023-05-07T05:20:40;2.45;;;2.28;;
63320;SDS011;49449;48.800;9.534;2023-05-07T05:23:12;2.40;;;2.20;;
63320;SDS011;49449;48.800;9.534;2023-05-07T05:25:40;3.58;;;2.80;;
63320;SDS011;49449;48.800;9.534;2023-05-07T05:28:08;3.33;;;2.38;;
63320;SDS011;49449;48.800;9.534;2023-05-07T05:30:37;4.10;;;2.60;;
63320;SDS011;49449;48.800;9.534;2023-05-07T05:33:05;2.90;;;2.70;;
63320;SDS011;49449;48.800;9.534;2023-05-07T05:35:32;2.85;;;2.55;;
63320;SDS011;49449;48.800;9.534;2023-05-07T05:38:02;3.15;;;2.70;;
63320;SDS011;49449;48.800;9.534;2023-05-07T05:40:33;3.35;;;3.05;;
63320;SDS011;49449;48.800;9.534;2023-05-07T05:43:01;2.67;;;2.33;;
63320;SDS011;49449;48.800;9.534;2023-05-07T05:45:29;4.38;;;2.92;;
63320;SDS011;49449;48.800;9.534;2023-05-07T05:47:57;2.70;;;2.50;;
63320;SDS011;49449;48.800;9.534;2023-05-07T05:50:25;2.72;;;2.28;;
63320;SDS011;49449;48.800;9.534;2023-05-07T05:52:53;2.45;;;2.25;;
63320;SDS011;49449;48.800;9.534;2023-05-07T05:55:21;2.90;;;2.28;;
63320;SDS011;49449;48.800;9.534;2023-05-07T05:57:50;2.70;;;2.47;;
63320;SDS011;49449;48.800;9.534;2023-05-07T06:00:18;4.15;;;2.13;;
63320;SDS011;49449;48.800;9.534;2023-05-07T06:02:48;2.80;;;2.60;;
63320;SDS011;49449;48.800;9.534;2023-05-07T06:05:16;2.38;;;2.28;;
63320;SDS011;49449;48.800;9.534;2023-05-07T06:07:44;2.20;;;2.10;;
63320;SDS011;49449;48.800;9.534;2023-05-07T06:10:13;2.97;;;2.65;;
63320;SDS011;49449;48.800;9.534;2023-05-07T06:12:41;2.72;;;2.53;;
63320;SDS011;49449;48.800;9.534;2023-05-07T06:15:11;2.72;;;2.53;;
63320;SDS011;49449;48.800;9.534;2023-05-07T06:17:39;4.18;;;2.30;;
63320;SDS011;49449;48.800;9.534;2023-05-07T06:20:07;2.75;;;2.50;;
63320;SDS011;49449;48.800;9.534;2023-05-07T06:22:36;2.50;;;2.30;;
63320;SDS011;49449;48.800;9.534;2023-05-07T06:25:04;3.08;;;2.80;;
63320;SDS011;49449;48.800;9.534;2023-05-07T06:27:32;3.90;;;2.40;;
63320;SDS011;49449;48.800;9.534;2023-05-07T06:30:00;2.70;;;2.50;;
63320;SDS011;49449;48.800;9.534;2023-05-07T06:32:29;2.53;;;2.33;;
63320;SDS011;49449;48.800;9.534;2023-05-07T06:34:58;3.30;;;2.35;;
63320;SDS011;49449;48.800;9.534;2023-05-07T06:37:26;2.50;;;2.30;;
63320;SDS011;49449;48.800;9.534;2023-05-07T06:39:54;2.97;;;2.35;;
63320;SDS011;49449;48.800;9.534;2023-05-07T06:42:22;2.38;;;2.15;;
63320;SDS011;49449;48.800;9.534;2023-05-07T06:44:52;2.30;;;2.10;;
63320;SDS011;49449;48.800;9.534;2023-05-07T06:47:21;2.22;;;2.03;;
63320;SDS011;49449;48.800;9.534;2023-05-07T06:49:50;2.63;;;2.38;;
63320;SDS011;49449;48.800;9.534;2023-05-07T06:52:18;2.20;;;2.10;;
63320;SDS011;49449;48.800;9.534;2023-05-07T06:54:46;2.20;;;2.00;;
63320;SDS011;49449;48.800;9.534;2023-05-07T06:57:14;2.03;;;1.92;;
63320;SDS011;49449;48.800;9.534;2023-05-07T06:59:42;2.25;;;2.05;;
63320;SDS011;49449;48.800;9.534;2023-05-07T07:02:10;2.25;;;2.15;;
63320;SDS011;49449;48.800;9.534;2023-05-07T07:04:39;2.00;;;1.90;;
63320;SDS011;49449;48.800;9.534;2023-05-07T07:07:09;1.90;;;1.80;;
63320;SDS011;49449;48.800;9.534;2023-05-07T07:09:37;2.25;;;2.05;;
63320;SDS011;49449;48.800;9.534;2023-05-07T07:12:05;2.65;;;2.25;;
63320;SDS011;49449;48.800;9.534;2023-05-07T07:14:33;2.20;;;2.00;;
63320;SDS011;49449;48.800;9.534;2023-05-07T07:17:03;2.00;;;1.88;;
63320;SDS011;49449;48.800;9.534;2023-05-07T07:19:31;3.83;;;2.28;;
63320;SDS011;49449;48.800;9.534;2023-05-07T07:21:59;2.35;;;2.25;;
63320;SDS011;49449;48.800;9.534;2023-05-07T07:24:28;2.13;;;1.92;;
63320;SDS011;49449;48.800;9.534;2023-05-07T07:26:56;2.13;;;1.95;;
63320;SDS011;49449;48.800;9.534;2023-05-07T07:29:24;1.77;;;1.67;;
63320;SDS011;49449;48.800;9.534;2023-05-07T07:31:52;2.75;;;1.77;;
63320;SDS011;49449;48.800;9.534;2023-05-07T07:34:20;2.30;;;2.03;;
63320;SDS011;49449;48.800;9.534;2023-05-07T07:36:48;1.75;;;1.52;;
63320;SDS011;49449;48.800;9.534;2023-05-07T07:39:17;2.28;;;1.60;;
63320;SDS011;49449;48.800;9.534;2023-05-07T07:41:46;1.70;;;1.60;;
63320;SDS011;49449;48.800;9.534;2023-05-07T07:44:14;2.45;;;2.00;;
63320;SDS011;49449;48.800;9.534;2023-05-07T07:46:42;1.67;;;1.58;;
63320;SDS011;49449;48.800;9.534;2023-05-07T07:49:10;1.85;;;1.55;;
63320;SDS011;49449;48.800;9.534;2023-05-07T07:51:38;2.40;;;2.15;;
63320;SDS011;49449;48.800;9.534;2023-05-07T07:54:06;2.10;;;1.80;;
63320;SDS011;49449;48.800;9.534;2023-05-07T07:56:34;3.50;;;2.40;;
63320;SDS011;49449;48.800;9.534;2023-05-07T07:59:05;2.10;;;1.75;;
63320;SDS011;49449;48.800;9.534;2023-05-07T08:01:32;2.33;;;1.65;;
63320;SDS011;49449;48.800;9.534;2023-05-07T08:04:00;1.80;;;1.70;;
63320;SDS011;49449;48.800;9.534;2023-05-07T08:06:29;1.98;;;1.88;;
63320;SDS011;49449;48.800;9.534;2023-05-07T08:08:59;1.70;;;1.58;;
63320;SDS011;49449;48.800;9.534;2023-05-07T08:11:27;2.00;;;1.90;;
63320;SDS011;49449;48.800;9.534;2023-05-07T08:13:55;1.90;;;1.80;;
63320;SDS011;49449;48.800;9.534;2023-05-07T08:16:25;3.95;;;1.90;;
63320;SDS011;49449;48.800;9.534;2023-05-07T08:18:56;2.38;;;2.22;;
63320;SDS011;49449;48.800;9.534;2023-05-07T08:21:23;3.55;;;2.63;;
63320;SDS011;49449;48.800;9.534;2023-05-07T08:23:52;1.95;;;1.83;;
63320;SDS011;49449;48.800;9.534;2023-05-07T08:26:20;2.08;;;1.88;;
63320;SDS011;49449;48.800;9.534;2023-05-07T08:28:48;2.35;;;2.15;;
63320;SDS011;49449;48.800;9.534;2023-05-07T08:31:16;3.67;;;2.40;;
63320;SDS011;49449;48.800;9.534;2023-05-07T08:33:45;2.20;;;2.00;;
63320;SDS011;49449;48.800;9.534;2023-05-07T08:36:14;3.63;;;2.17;;
63320;SDS011;49449;48.800;9.534;2023-05-07T08:38:42;2.00;;;1.70;;
63320;SDS011;49449;48.800;9.534;2023-05-07T08:41:12;2.38;;;1.98;;
63320;SDS011;49449;48.800;9.534;2023-05-07T08:43:40;3.03;;;2.40;;
63320;SDS011;49449;48.800;9.534;2023-05-07T08:46:09;3.17;;;2.00;;
63320;SDS011;49449;48.800;9.534;2023-05-07T08:48:38;2.13;;;2.03;;
63320;SDS011;49449;48.800;9.534;2023-05-07T08:51:08;4.00;;;2.63;;
63320;SDS011;49449;48.800;9.534;2023-05-07T08:53:41;2.75;;;1.95;;
63320;SDS011;49449;48.800;9.534;2023-05-07T08:56:09;2.13;;;1.92;;
63320;SDS011;49449;48.800;9.534;2023-05-07T08:58:37;2.42;;;1.88;;
63320;SDS011;49449;48.800;9.534;2023-05-07T09:01:06;2.40;;;1.85;;
63320;SDS011;49449;48.800;9.534;2023-05-07T09:03:38;2.72;;;2.30;;
63320;SDS011;49449;48.800;9.534;2023-05-07T09:06:07;3.85;;;2.40;;
63320;SDS011;49449;48.800;9.534;2023-05-07T09:08:35;3.13;;;2.72;;
63320;SDS011;49449;48.800;9.534;2023-05-07T09:11:03;2.60;;;2.40;;
63320;SDS011;49449;48.800;9.534;2023-05-07T09:13:31;2.13;;;1.90;;
63320;SDS011;49449;48.800;9.534;2023-05-07T09:16:09;1.88;;;1.70;;
63320;SDS011;49449;48.800;9.534;2023-05-07T09:18:41;3.20;;;2.03;;
63320;SDS011;49449;48.800;9.534;2023-05-07T09:21:12;1.83;;;1.70;;
63320;SDS011;49449;48.800;9.534;2023-05-07T09:23:42;3.20;;;1.90;;
63320;SDS011;49449;48.800;9.534;2023-05-07T09:26:11;3.15;;;1.88;;
63320;SDS011;49449;48.800;9.534;2023-05-07T09:28:40;1.80;;;1.70;;
63320;SDS011;49449;48.800;9.534;2023-05-07T09:31:09;1.85;;;1.70;;
63320;SDS011;49449;48.800;9.534;2023-05-07T09:33:38;4.35;;;1.90;;
63320;SDS011;49449;48.800;9.534;2023-05-07T09:36:09;2.05;;;1.90;;
63320;SDS011;49449;48.800;9.534;2023-05-07T09:38:38;3.13;;;1.92;;
63320;SDS011;49449;48.800;9.534;2023-05-07T09:41:07;1.85;;;1.75;;
63320;SDS011;49449;48.800;9.534;2023-05-07T09:43:37;2.95;;;2.25;;
63320;SDS011;49449;48.800;9.534;2023-05-07T09:46:06;3.67;;;2.20;;
63320;SDS011;49449;48.800;9.534;2023-05-07T09:48:36;2.17;;;2.00;;
63320;SDS011;49449;48.800;9.534;2023-05-07T09:51:09;2.72;;;1.75;;
63320;SDS011;49449;48.800;9.534;2023-05-07T09:53:54;1.92;;;1.83;;
63320;SDS011;49449;48.800;9.534;2023-05-07T09:56:26;2.65;;;1.90;;
63320;SDS011;49449;48.800;9.534;2023-05-07T09:58:55;1.98;;;1.88;;
63320;SDS011;49449;48.800;9.534;2023-05-07T10:01:24;1.90;;;1.80;;
63320;SDS011;49449;48.800;9.534;2023-05-07T10:03:55;2.00;;;1.90;;
63320;SDS011;49449;48.800;9.534;2023-05-07T10:06:24;1.80;;;1.52;;
63320;SDS011;49449;48.800;9.534;2023-05-07T10:08:54;2.78;;;1.83;;
63320;SDS011;49449;48.800;9.534;2023-05-07T10:11:25;1.90;;;1.80;;
63320;SDS011;49449;48.800;9.534;2023-05-07T10:13:54;2.30;;;2.10;;
63320;SDS011;49449;48.800;9.534;2023-05-07T10:16:22;1.90;;;1.70;;
63320;SDS011;49449;48.800;9.534;2023-05-07T10:18:51;2.45;;;2.35;;
63320;SDS011;49449;48.800;9.534;2023-05-07T10:21:21;2.42;;;2.22;;
63320;SDS011;49449;48.800;9.534;2023-05-07T10:23:51;3.38;;;2.00;;
63320;SDS011;49449;48.800;9.534;2023-05-07T10:26:25;2.22;;;2.00;;
63320;SDS011;49449;48.800;9.534;2023-05-07T10:28:58;2.53;;;2.22;;
63320;SDS011;49449;48.800;9.534;2023-05-07T10:34:28;2.30;;;2.10;;
63320;SDS011;49449;48.800;9.534;2023-05-07T10:37:00;3.30;;;1.70;;
63320;SDS011;49449;48.800;9.534;2023-05-07T10:39:31;1.95;;;1.75;;
63320;SDS011;49449;48.800;9.534;2023-05-07T10:42:07;2.38;;;1.98;;
63320;SDS011;49449;48.800;9.534;2023-05-07T10:44:36;3.03;;;1.90;;
63320;SDS011;49449;48.800;9.534;2023-05-07T10:47:06;2.15;;;2.05;;
63320;SDS011;49449;48.800;9.534;2023-05-07T10:49:36;2.30;;;2.10;;
63320;SDS011;49449;48.800;9.534;2023-05-07T10:52:13;3.95;;;2.20;;
63320;SDS011;49449;48.800;9.534;2023-05-07T10:55:18;1.70;;;1.60;;
63320;SDS011;49449;48.800;9.534;2023-05-07T10:57:53;2.38;;;2.00;;
63320;SDS011;49449;48.800;9.534;2023-05-07T11:00:40;2.00;;;1.90;;
63320;SDS011;49449;48.800;9.534;2023-05-07T11:03:09;3.60;;;2.35;;
63320;SDS011;49449;48.800;9.534;2023-05-07T11:05:38;2.17;;;1.98;;
63320;SDS011;49449;48.800;9.534;2023-05-07T11:08:06;1.83;;;1.73;;
63320;SDS011;49449;48.800;9.534;2023-05-07T11:10:49;3.60;;;1.67;;
63320;SDS011;49449;48.800;9.534;2023-05-07T11:13:40;1.90;;;1.77;;
63320;SDS011;49449;48.800;9.534;2023-05-07T11:16:17;2.60;;;1.98;;
63320;SDS011;49449;48.800;9.534;2023-05-07T11:18:50;1.60;;;1.50;;
63320;SDS011;49449;48.800;9.534;2023-05-07T11:21:34;1.90;;;1.80;;
63320;SDS011;49449;48.800;9.534;2023-05-07T11:24:04;1.70;;;1.60;;
63320;SDS011;49449;48.800;9.534;2023-05-07T11:26:44;2.13;;;1.92;;
63320;SDS011;49449;48.800;9.534;2023-05-07T11:29:16;2.60;;;2.40;;
63320;SDS011;49449;48.800;9.534;2023-05-07T11:31:49;2.00;;;1.90;;
63320;SDS011;49449;48.800;9.534;2023-05-07T11:34:21;1.65;;;1.55;;
63320;SDS011;49449;48.800;9.534;2023-05-07T11:36:54;1.77;;;1.67;;
63320;SDS011;49449;48.800;9.534;2023-05-07T11:39:26;2.17;;;1.67;;
63320;SDS011;49449;48.800;9.534;2023-05-07T11:41:59;2.15;;;1.88;;
63320;SDS011;49449;48.800;9.534;2023-05-07T11:44:41;2.50;;;1.90;;
63320;SDS011;49449;48.800;9.534;2023-05-07T11:47:16;4.88;;;1.73;;
63320;SDS011;49449;48.800;9.534;2023-05-07T11:49:46;2.58;;;1.67;;
63320;SDS011;49449;48.800;9.534;2023-05-07T11:52:16;2.05;;;1.73;;
63320;SDS011;49449;48.800;9.534;2023-05-07T11:54:48;2.58;;;1.85;;
63320;SDS011;49449;48.800;9.534;2023-05-07T11:57:20;1.95;;;1.75;;
63320;SDS011;49449;48.800;9.534;2023-05-07T11:59:52;1.60;;;1.60;;
63320;SDS011;49449;48.800;9.534;2023-05-07T12:02:21;2.60;;;1.63;;
63320;SDS011;49449;48.800;9.534;2023-05-07T12:04:54;3.20;;;1.85;;
63320;SDS011;49449;48.800;9.534;2023-05-07T12:07:23;1.80;;;1.70;;
63320;SDS011;49449;48.800;9.534;2023-05-07T12:09:53;3.22;;;1.90;;
63320;SDS011;49449;48.800;9.534;2023-05-07T12:12:25;1.90;;;1.80;;
63320;SDS011;49449;48.800;9.534;2023-05-07T12:14:57;2.22;;;1.90;;
63320;SDS011;49449;48.800;9.534;2023-05-07T12:17:25;2.40;;;2.20;;
63320;SDS011;49449;48.800;9.534;2023-05-07T12:19:57;1.83;;;1.73;;
63320;SDS011;49449;48.800;9.534;2023-05-07T12:22:25;1.73;;;1.50;;
63320;SDS011;49449;48.800;9.534;2023-05-07T12:24:56;1.48;;;1.38;;
63320;SDS011;49449;48.800;9.534;2023-05-07T12:27:26;2.30;;;2.10;;
63320;SDS011;49449;48.800;9.534;2023-05-07T12:29:54;2.00;;;1.80;;
63320;SDS011;49449;48.800;9.534;2023-05-07T12:32:25;2.05;;;1.60;;
63320;SDS011;49449;48.800;9.534;2023-05-07T12:34:53;1.60;;;1.50;;
63320;SDS011;49449;48.800;9.534;2023-05-07T12:37:22;1.98;;;1.83;;
63320;SDS011;49449;48.800;9.534;2023-05-07T12:42:37;2.42;;;1.75;;
63320;SDS011;49449;48.800;9.534;2023-05-07T12:47:37;2.35;;;1.50;;
63320;SDS011;49449;48.800;9.534;2023-05-07T12:50:06;1.80;;;1.60;;
63320;SDS011;49449;48.800;9.534;2023-05-07T12:52:36;1.67;;;1.63;;
63320;SDS011;49449;48.800;9.534;2023-05-07T12:55:04;1.85;;;1.75;;
63320;SDS011;49449;48.800;9.534;2023-05-07T12:57:39;2.70;;;1.90;;
63320;SDS011;49449;48.800;9.534;2023-05-07T13:00:07;4.00;;;2.30;;
63320;SDS011;49449;48.800;9.534;2023-05-07T13:02:37;1.77;;;1.67;;
63320;SDS011;49449;48.800;9.534;2023-05-07T13:05:06;3.20;;;1.80;;
63320;SDS011;49449;48.800;9.534;2023-05-07T13:07:35;2.40;;;1.60;;
63320;SDS011;49449;48.800;9.534;2023-05-07T13:10:03;1.90;;;1.80;;
63320;SDS011;49449;48.800;9.534;2023-05-07T13:12:32;2.00;;;1.75;;
63320;SDS011;49449;48.800;9.534;2023-05-07T13:15:01;2.20;;;1.75;;
63320;SDS011;49449;48.800;9.534;2023-05-07T13:17:29;2.88;;;1.80;;
63320;SDS011;49449;48.800;9.534;2023-05-07T13:19:57;2.30;;;2.10;;
63320;SDS011;49449;48.800;9.534;2023-05-07T13:22:25;1.70;;;1.60;;
63320;SDS011;49449;48.800;9.534;2023-05-07T13:24:53;1.70;;;1.60;;
63320;SDS011;49449;48.800;9.534;2023-05-07T13:27:23;2.72;;;2.25;;
63320;SDS011;49449;48.800;9.534;2023-05-07T13:29:52;1.95;;;1.80;;
63320;SDS011;49449;48.800;9.534;2023-05-07T13:32:24;2.30;;;2.03;;
63320;SDS011;49449;48.800;9.534;2023-05-07T13:34:51;2.20;;;2.10;;
63320;SDS011;49449;48.800;9.534;2023-05-07T13:37:21;2.13;;;1.98;;
63320;SDS011;49449;48.800;9.534;2023-05-07T13:39:49;2.70;;;1.92;;
63320;SDS011;49449;48.800;9.534;2023-05-07T13:42:17;2.00;;;1.90;;
63320;SDS011;49449;48.800;9.534;2023-05-07T13:44:45;2.95;;;2.47;;
63320;SDS011;49449;48.800;9.534;2023-05-07T13:47:14;2.05;;;1.85;;
63320;SDS011;49449;48.800;9.534;2023-05-07T13:49:46;2.25;;;2.08;;
63320;SDS011;49449;48.800;9.534;2023-05-07T13:52:27;2.92;;;2.15;;
63320;SDS011;49449;48.800;9.534;2023-05-07T13:54:57;2.30;;;1.77;;
63320;SDS011;49449;48.800;9.534;2023-05-07T13:57:28;2.33;;;1.85;;
63320;SDS011;49449;48.800;9.534;2023-05-07T13:59:56;2.45;;;1.90;;
63320;SDS011;49449;48.800;9.534;2023-05-07T14:02:23;2.42;;;1.83;;
63320;SDS011;49449;48.800;9.534;2023-05-07T14:04:53;2.03;;;1.83;;
63320;SDS011;49449;48.800;9.534;2023-05-07T14:07:21;2.30;;;1.88;;
63320;SDS011;49449;48.800;9.534;2023-05-07T14:09:49;2.60;;;2.38;;
63320;SDS011;49449;48.800;9.534;2023-05-07T14:12:17;1.80;;;1.70;;
63320;SDS011;49449;48.800;9.534;2023-05-07T14:14:46;1.95;;;1.80;;
63320;SDS011;49449;48.800;9.534;2023-05-07T14:17:17;2.55;;;2.00;;
63320;SDS011;49449;48.800;9.534;2023-05-07T14:19:45;2.10;;;1.67;;
63320;SDS011;49449;48.800;9.534;2023-05-07T14:22:14;1.90;;;1.80;;
63320;SDS011;49449;48.800;9.534;2023-05-07T14:24:42;1.73;;;1.63;;
63320;SDS011;49449;48.800;9.534;2023-05-07T14:27:10;1.60;;;1.50;;
63320;SDS011;49449;48.800;9.534;2023-05-07T14:29:38;1.85;;;1.75;;
63320;SDS011;49449;48.800;9.534;2023-05-07T14:32:06;1.50;;;1.40;;
63320;SDS011;49449;48.800;9.534;2023-05-07T14:34:35;3.45;;;1.90;;
63320;SDS011;49449;48.800;9.534;2023-05-07T14:37:06;2.20;;;1.80;;
63320;SDS011;49449;48.800;9.534;2023-05-07T14:39:35;1.95;;;1.58;;
63320;SDS011;49449;48.800;9.534;2023-05-07T14:42:03;1.70;;;1.60;;
63320;SDS011;49449;48.800;9.534;2023-05-07T14:44:34;1.45;;;1.38;;
63320;SDS011;49449;48.800;9.534;2023-05-07T14:47:02;1.48;;;1.38;;
63320;SDS011;49449;48.800;9.534;2023-05-07T14:49:30;1.30;;;1.20;;
63320;SDS011;49449;48.800;9.534;2023-05-07T14:51:57;1.48;;;1.38;;
63320;SDS011;49449;48.800;9.534;2023-05-07T14:54:26;3.35;;;1.40;;
63320;SDS011;49449;48.800;9.534;2023-05-07T14:56:56;1.02;;;1.02;;
63320;SDS011;49449;48.800;9.534;2023-05-07T14:59:24;1.35;;;1.25;;
63320;SDS011;49449;48.800;9.534;2023-05-07T15:01:51;1.83;;;1.30;;
63320;SDS011;49449;48.800;9.534;2023-05-07T15:04:22;1.10;;;1.00;;
63320;SDS011;49449;48.800;9.534;2023-05-07T15:06:51;1.50;;;1.40;;
63320;SDS011;49449;48.800;9.534;2023-05-07T15:09:20;3.05;;;1.38;;
63320;SDS011;49449;48.800;9.534;2023-05-07T15:11:49;1.70;;;1.50;;